Time;durP1;ratioP1;P1;durP2;ratioP2;P2;SDS_P1;SDS_P2;PMS_P1;PMS_P2;Temp;Humidity;BMP_temperature;BMP_pressure;BME280_temperature;BME280_humidity;BME280_pressure;Samples;Min_cycle;Max_cycle;Signal;HPM_P1;HPM_P2
2022/11/25 00:01:11;;;;;;;3.15;2.15;;;12.10;63.30;;;;;;5107513;28;20020;-68
2022/11/25 00:03:38;;;;;;;1.83;1.73;;;12.10;63.30;;;;;;5107523;28;20016;-68
2022/11/25 00:06:17;;;;;;;2.67;2.25;;;12.10;63.30;;;;;;5107471;28;20024;-67
2022/11/25 00:08:44;;;;;;;2.70;1.92;;;12.10;63.40;;;;;;5107481;28;20079;-68
2022/11/25 00:11:11;;;;;;;2.20;2.00;;;12.10;63.40;;;;;;5107367;28;20208;-67
2022/11/25 00:13:38;;;;;;;2.28;2.08;;;12.10;63.40;;;;;;5107347;28;20294;-67
2022/11/25 00:16:31;;;;;;;2.03;1.83;;;12.10;63.40;;;;;;5107298;28;20018;-67
2022/11/25 00:18:58;;;;;;;3.15;2.42;;;12.10;63.40;;;;;;5104072;28;20095;-68
2022/11/25 00:21:27;;;;;;;2.60;1.90;;;12.10;63.50;;;;;;5106918;28;20145;-67
2022/11/25 00:23:55;;;;;;;2.25;1.80;;;12.10;63.50;;;;;;5107177;28;20384;-68
2022/11/25 00:26:23;;;;;;;2.60;2.40;;;12.10;64.10;;;;;;5107109;28;20061;-67
2022/11/25 00:28:49;;;;;;;2.35;2.13;;;12.10;63.50;;;;;;5105875;28;20016;-68
2022/11/25 00:31:21;;;;;;;2.38;1.92;;;12.00;63.50;;;;;;5106999;28;20084;-68
2022/11/25 00:33:48;;;;;;;2.83;2.50;;;12.10;63.60;;;;;;5106996;28;20023;-67
2022/11/25 00:36:20;;;;;;;2.97;2.60;;;12.10;63.50;;;;;;5106891;28;20016;-66
2022/11/25 00:38:51;;;;;;;2.35;1.92;;;12.10;63.40;;;;;;5106831;28;20020;-67
2022/11/25 00:46:45;;;;;;;3.05;1.92;;;12.00;63.50;;;;;;5106750;28;20058;-69
2022/11/25 00:49:11;;;;;;;2.40;1.90;;;12.10;63.60;;;;;;5106673;28;20015;-68
2022/11/25 00:51:36;;;;;;;2.53;2.05;;;12.10;63.50;;;;;;5106612;28;20044;-69
2022/11/25 00:54:02;;;;;;;2.55;2.08;;;12.10;63.50;;;;;;5105382;28;20101;-68
2022/11/25 00:56:29;;;;;;;2.72;2.05;;;12.10;63.40;;;;;;5106502;28;20055;-69
2022/11/25 00:58:55;;;;;;;2.20;1.90;;;12.10;63.40;;;;;;5105308;28;20047;-69
2022/11/25 01:01:21;;;;;;;2.92;2.40;;;12.10;63.40;;;;;;5106355;28;20217;-69
2022/11/25 01:03:51;;;;;;;2.67;2.30;;;12.10;63.50;;;;;;5106365;28;20079;-69
2022/11/25 01:06:17;;;;;;;3.05;2.38;;;12.00;63.40;;;;;;5105455;28;20016;-69
2022/11/25 01:08:43;;;;;;;2.33;1.90;;;12.10;63.60;;;;;;5106261;28;20314;-67
2022/11/25 01:11:11;;;;;;;3.00;2.25;;;12.00;63.50;;;;;;5106227;28;20051;-67
2022/11/25 01:13:37;;;;;;;2.33;1.85;;;12.00;63.40;;;;;;5106183;28;20016;-70
2022/11/25 01:16:05;;;;;;;2.33;2.05;;;12.10;63.50;;;;;;5106138;28;20199;-68
2022/11/25 01:18:32;;;;;;;2.13;1.77;;;12.10;63.40;;;;;;5106090;28;20020;-68
2022/11/25 01:21:15;;;;;;;2.10;1.75;;;12.10;63.30;;;;;;5105780;28;20047;-68
2022/11/25 01:23:42;;;;;;;3.63;2.35;;;12.10;63.30;;;;;;5106098;28;20016;-67
2022/11/25 01:26:16;;;;;;;2.53;2.05;;;12.10;63.40;;;;;;5105936;28;20038;-68
2022/11/25 01:28:42;;;;;;;2.47;2.00;;;12.00;63.50;;;;;;5105911;28;20023;-67
2022/11/25 01:31:19;;;;;;;3.20;2.10;;;12.10;63.40;;;;;;5104676;28;20099;-67
2022/11/25 01:33:45;;;;;;;2.42;1.95;;;12.10;63.30;;;;;;5105813;28;20231;-67
2022/11/25 01:36:16;;;;;;;2.92;2.08;;;12.10;63.30;;;;;;5105772;28;20019;-68
2022/11/25 01:38:43;;;;;;;2.35;2.15;;;12.10;63.30;;;;;;5105656;28;20031;-66
2022/11/25 01:41:13;;;;;;;2.42;2.10;;;12.00;63.40;;;;;;5105573;28;20075;-68
2022/11/25 01:43:39;;;;;;;2.67;2.05;;;12.00;63.40;;;;;;5105600;28;20058;-68
2022/11/25 01:46:26;;;;;;;2.20;2.00;;;12.00;63.40;;;;;;5105558;28;20227;-67
2022/11/25 01:48:55;;;;;;;1.80;1.70;;;12.00;63.50;;;;;;5105527;28;20012;-68
2022/11/25 01:51:25;;;;;;;;;;;12.10;63.50;;;;;;5105891;28;20219;-67
2022/11/25 01:53:53;;;;;;;2.25;1.75;;;12.00;63.50;;;;;;5105448;28;19954;-68
2022/11/25 01:56:19;;;;;;;2.53;2.00;;;12.10;63.50;;;;;;5105360;28;20023;-68
2022/11/25 01:58:46;;;;;;;3.17;2.20;;;12.10;63.30;;;;;;5105348;28;20041;-69
2022/11/25 02:01:13;;;;;;;2.40;2.20;;;12.10;63.10;;;;;;5105191;28;20207;-67
2022/11/25 02:03:43;;;;;;;2.38;1.92;;;12.10;63.00;;;;;;5105216;28;20008;-68
2022/11/25 02:06:27;;;;;;;2.20;1.98;;;12.10;63.20;;;;;;5105154;28;20020;-68
2022/11/25 02:08:59;;;;;;;2.65;2.20;;;12.00;63.20;;;;;;5105104;28;20019;-68
2022/11/25 02:11:26;;;;;;;3.15;2.30;;;12.00;63.40;;;;;;5103952;28;20042;-67
2022/11/25 02:13:52;;;;;;;2.10;1.80;;;12.10;63.40;;;;;;5105001;28;20311;-67
2022/11/25 02:16:18;;;;;;;2.45;2.00;;;12.10;63.30;;;;;;5104981;28;20028;-68
2022/11/25 02:18:45;;;;;;;2.88;2.13;;;12.10;63.40;;;;;;5104858;28;20189;-67
2022/11/25 02:21:14;;;;;;;2.20;1.92;;;12.10;63.40;;;;;;5104596;28;20107;-67
2022/11/25 02:24:08;;;;;;;2.70;1.80;;;12.00;63.30;;;;;;5104821;28;20027;-67
2022/11/25 02:26:34;;;;;;;2.53;2.25;;;12.00;63.40;;;;;;5102922;28;20032;-68
2022/11/25 02:29:00;;;;;;;2.13;1.85;;;12.00;63.50;;;;;;5104701;28;20016;-68
2022/11/25 02:31:26;;;;;;;2.55;2.00;;;12.00;63.50;;;;;;5104676;28;20197;-68
2022/11/25 02:33:51;;;;;;;2.72;1.90;;;12.00;63.40;;;;;;5104607;28;20058;-67
2022/11/25 02:36:20;;;;;;;2.95;2.22;;;12.00;63.40;;;;;;5104596;28;20016;-68
2022/11/25 02:38:48;;;;;;;;;;;12.10;63.40;;;;;;5104941;28;20288;-67
2022/11/25 02:41:33;;;;;;;2.42;2.22;;;12.10;63.20;;;;;;5104452;28;19911;-67
2022/11/25 02:44:00;;;;;;;3.42;2.47;;;12.10;63.20;;;;;;5104491;28;20016;-67
2022/11/25 02:46:27;;;;;;;3.00;1.77;;;12.10;63.10;;;;;;5104408;28;20294;-67
2022/11/25 02:48:55;;;;;;;2.13;1.70;;;12.10;63.20;;;;;;5104366;28;20019;-68
2022/11/25 02:51:23;;;;;;;2.92;1.98;;;12.10;63.20;;;;;;5104316;28;20023;-69
2022/11/25 02:53:50;;;;;;;4.80;2.85;;;12.10;63.30;;;;;;5103953;28;20235;-68
2022/11/25 02:56:17;;;;;;;2.10;1.90;;;12.10;63.30;;;;;;5104238;28;20331;-67
2022/11/25 02:58:43;;;;;;;2.63;2.10;;;12.00;63.30;;;;;;5104167;28;20027;-68
2022/11/25 03:01:09;;;;;;;1.83;1.55;;;12.10;63.30;;;;;;5104072;28;20024;-67
2022/11/25 03:03:36;;;;;;;2.50;2.08;;;12.00;63.30;;;;;;5104103;28;20008;-68
2022/11/25 03:06:02;;;;;;;2.60;2.05;;;12.00;63.30;;;;;;5104080;28;20016;-68
2022/11/25 03:08:28;;;;;;;2.70;2.30;;;12.00;63.40;;;;;;5104024;28;20035;-68
2022/11/25 03:10:54;;;;;;;2.28;2.08;;;12.00;63.50;;;;;;5104005;28;20020;-67
2022/11/25 03:13:20;;;;;;;1.60;1.50;;;12.00;63.40;;;;;;5103947;28;20336;-68
2022/11/25 03:15:46;;;;;;;2.67;2.10;;;12.00;63.30;;;;;;5103917;28;20054;-68
2022/11/25 03:18:12;;;;;;;3.00;2.40;;;12.00;63.40;;;;;;5103902;28;20023;-67
2022/11/25 03:20:38;;;;;;;2.83;2.13;;;12.00;63.20;;;;;;5103660;28;20048;-68
2022/11/25 03:23:05;;;;;;;2.50;1.70;;;12.00;63.40;;;;;;5103793;28;20020;-68
2022/11/25 03:25:31;;;;;;;2.33;2.13;;;12.00;63.40;;;;;;5103767;28;20071;-67
2022/11/25 03:27:57;;;;;;;2.38;1.75;;;12.00;63.40;;;;;;5103752;28;20016;-68
2022/11/25 03:30:26;;;;;;;3.15;2.10;;;12.00;63.30;;;;;;5103355;28;20020;-68
2022/11/25 03:32:51;;;;;;;1.95;1.80;;;12.00;63.30;;;;;;5103732;28;20212;-68
2022/11/25 03:35:17;;;;;;;2.17;1.63;;;12.00;63.30;;;;;;5103687;28;20027;-68
2022/11/25 03:37:44;;;;;;;2.22;2.03;;;12.00;63.30;;;;;;5103653;28;20317;-68
2022/11/25 03:40:11;;;;;;;2.47;2.05;;;12.00;63.40;;;;;;5103619;28;20316;-68
2022/11/25 03:42:38;;;;;;;3.28;2.45;;;12.00;63.40;;;;;;5103572;28;20043;-69
2022/11/25 03:45:04;;;;;;;2.35;1.75;;;12.00;63.40;;;;;;5103619;28;20043;-68
2022/11/25 03:47:32;;;;;;;2.45;1.92;;;12.00;63.40;;;;;;5102375;28;20012;-67
2022/11/25 03:49:57;;;;;;;2.20;1.75;;;12.00;63.40;;;;;;5103583;28;20075;-67
2022/11/25 03:52:23;;;;;;;2.33;2.03;;;12.00;63.40;;;;;;5103572;28;20054;-68
2022/11/25 03:54:49;;;;;;;2.55;2.15;;;12.00;63.40;;;;;;5103536;28;20020;-68
2022/11/25 03:57:15;;;;;;;3.05;2.15;;;12.00;63.00;;;;;;5103508;28;20020;-67
2022/11/25 03:59:41;;;;;;;2.83;2.20;;;12.00;63.20;;;;;;5103480;28;20312;-67
2022/11/25 04:02:07;;;;;;;2.42;2.22;;;12.00;63.20;;;;;;5103391;28;20371;-68
2022/11/25 04:04:32;;;;;;;2.38;2.15;;;12.10;63.30;;;;;;5103422;28;20312;-68
2022/11/25 04:06:58;;;;;;;2.17;1.98;;;12.10;63.20;;;;;;5103387;28;20016;-68
2022/11/25 04:09:24;;;;;;;3.00;2.13;;;12.00;63.10;;;;;;5103383;28;20024;-67
2022/11/25 04:14:36;;;;;;;2.22;2.00;;;12.00;63.30;;;;;;5103402;28;20354;-68
2022/11/25 04:17:02;;;;;;;2.75;2.15;;;12.00;63.30;;;;;;5103292;28;20028;-68
2022/11/25 04:19:27;;;;;;;2.65;2.22;;;12.00;63.40;;;;;;5102155;28;20369;-68
2022/11/25 04:21:53;;;;;;;2.25;1.88;;;12.00;63.40;;;;;;5103027;28;20048;-68
2022/11/25 04:24:20;;;;;;;2.35;2.05;;;12.00;63.50;;;;;;5103222;28;20050;-68
2022/11/25 04:26:46;;;;;;;2.17;1.90;;;12.00;63.40;;;;;;5103239;28;20043;-69
2022/11/25 04:29:12;;;;;;;2.83;2.00;;;12.00;63.30;;;;;;5103199;28;20012;-68
2022/11/25 04:31:37;;;;;;;2.35;1.83;;;12.00;63.10;;;;;;5103127;28;20028;-69
2022/11/25 04:34:04;;;;;;;1.80;1.70;;;12.00;63.00;;;;;;5103122;28;20057;-68
2022/11/25 04:36:30;;;;;;;3.50;2.22;;;12.00;63.10;;;;;;5103123;28;20024;-67
2022/11/25 04:38:56;;;;;;;2.72;2.30;;;12.00;63.20;;;;;;5103105;28;20323;-67
2022/11/25 04:41:22;;;;;;;3.95;2.47;;;12.00;63.20;;;;;;5104582;28;20085;-67
2022/11/25 04:43:47;;;;;;;2.00;1.80;;;12.00;63.30;;;;;;5106760;28;20023;-68
2022/11/25 04:46:18;;;;;;;3.20;2.40;;;12.00;63.20;;;;;;5106756;28;20347;-69
2022/11/25 04:48:44;;;;;;;2.38;2.17;;;12.00;63.10;;;;;;5106676;28;20015;-68
2022/11/25 04:51:10;;;;;;;2.17;1.75;;;12.00;63.10;;;;;;5106602;28;20072;-68
2022/11/25 04:53:36;;;;;;;2.10;1.88;;;12.00;63.20;;;;;;5106565;28;20020;-67
2022/11/25 04:56:02;;;;;;;2.20;1.92;;;12.00;63.30;;;;;;5106533;28;20028;-69
2022/11/25 05:01:26;;;;;;;2.38;2.05;;;11.90;63.30;;;;;;5094143;28;20031;-66
2022/11/25 05:03:51;;;;;;;2.95;2.65;;;12.00;63.30;;;;;;5106394;28;20016;-68
2022/11/25 05:06:18;;;;;;;2.03;1.83;;;12.00;63.30;;;;;;5106342;28;20016;-67
2022/11/25 05:08:48;;;;;;;2.38;1.98;;;12.00;63.20;;;;;;5106306;28;20200;-67
2022/11/25 05:11:14;;;;;;;1.95;1.75;;;12.00;62.90;;;;;;5106222;28;20027;-67
2022/11/25 05:13:40;;;;;;;2.65;1.95;;;12.00;63.10;;;;;;5106170;28;20020;-67
2022/11/25 05:16:06;;;;;;;1.98;1.77;;;12.00;63.10;;;;;;5106158;28;20053;-68
2022/11/25 05:18:32;;;;;;;2.22;1.88;;;12.00;63.20;;;;;;5106091;28;20050;-67
2022/11/25 05:21:04;;;;;;;1.98;1.77;;;12.00;63.20;;;;;;5105994;28;20115;-68
2022/11/25 05:23:31;;;;;;;1.85;1.73;;;12.00;63.20;;;;;;5106008;28;20016;-67
2022/11/25 05:26:03;;;;;;;2.70;1.90;;;12.00;63.20;;;;;;5105948;28;20354;-67
2022/11/25 05:28:30;;;;;;;2.28;1.70;;;12.00;63.30;;;;;;5105921;28;20024;-68
2022/11/25 05:30:56;;;;;;;4.10;2.35;;;12.00;63.20;;;;;;5104724;28;20312;-67
2022/11/25 05:33:22;;;;;;;2.03;1.50;;;12.00;63.30;;;;;;5105802;28;20020;-67
2022/11/25 05:35:56;;;;;;;2.30;1.70;;;11.90;63.30;;;;;;5105793;28;20056;-67
2022/11/25 05:38:21;;;;;;;2.92;1.92;;;11.90;63.30;;;;;;5105740;28;20012;-67
2022/11/25 05:40:47;;;;;;;2.30;2.08;;;12.00;63.30;;;;;;5105581;28;20031;-68
2022/11/25 05:43:13;;;;;;;2.10;1.92;;;12.00;63.20;;;;;;5105648;28;20027;-67
2022/11/25 05:45:39;;;;;;;2.17;1.98;;;12.00;63.20;;;;;;5105624;28;20204;-67
2022/11/25 05:48:05;;;;;;;2.00;1.77;;;12.00;63.00;;;;;;5105552;28;20020;-67
2022/11/25 05:50:30;;;;;;;2.22;1.80;;;12.00;63.10;;;;;;5105492;28;20023;-67
2022/11/25 05:52:56;;;;;;;2.78;2.13;;;12.00;63.20;;;;;;5105100;28;20031;-67
2022/11/25 05:55:22;;;;;;;2.33;2.00;;;12.00;63.20;;;;;;5105410;28;20024;-68
2022/11/25 05:57:48;;;;;;;2.53;1.90;;;12.00;63.10;;;;;;5105314;28;20267;-68
2022/11/25 06:00:14;;;;;;;2.42;2.22;;;12.00;63.20;;;;;;5105295;28;20020;-67
2022/11/25 06:02:40;;;;;;;2.67;2.08;;;12.00;63.20;;;;;;5105148;28;20035;-66
2022/11/25 06:05:06;;;;;;;2.08;1.88;;;12.00;63.20;;;;;;5105230;28;20012;-67
2022/11/25 06:07:32;;;;;;;2.63;1.83;;;12.00;63.20;;;;;;5105172;28;20312;-67
2022/11/25 06:09:57;;;;;;;2.20;2.00;;;12.00;63.20;;;;;;5105114;28;20023;-68
2022/11/25 06:12:23;;;;;;;2.83;2.60;;;11.90;63.30;;;;;;5105052;28;20364;-68
2022/11/25 06:14:50;;;;;;;2.35;1.90;;;11.90;63.30;;;;;;5105064;28;20022;-67
2022/11/25 06:17:16;;;;;;;1.80;1.50;;;11.90;63.30;;;;;;5104985;28;20020;-68
2022/11/25 06:19:41;;;;;;;2.88;2.45;;;11.90;63.20;;;;;;5104920;28;20181;-67
2022/11/25 06:22:07;;;;;;;2.22;2.00;;;12.00;63.10;;;;;;5104684;28;20059;-68
2022/11/25 06:24:33;;;;;;;2.28;1.98;;;12.00;63.10;;;;;;5104863;28;20314;-68
2022/11/25 06:26:59;;;;;;;3.30;1.95;;;12.00;63.00;;;;;;5104809;28;20024;-68
2022/11/25 06:29:25;;;;;;;2.70;2.13;;;12.00;63.10;;;;;;5104736;28;20042;-68
2022/11/25 06:31:51;;;;;;;2.35;1.90;;;12.00;63.10;;;;;;5104699;28;20453;-68
2022/11/25 06:34:18;;;;;;;2.60;2.05;;;11.90;63.30;;;;;;5104676;28;20023;-68
2022/11/25 06:36:43;;;;;;;2.58;1.98;;;12.00;63.20;;;;;;5104595;28;20015;-68
2022/11/25 06:39:09;;;;;;;2.35;2.00;;;12.00;63.10;;;;;;5104555;28;20035;-68
2022/11/25 06:41:35;;;;;;;2.40;1.88;;;12.00;63.10;;;;;;5104424;28;20020;-68
2022/11/25 06:44:01;;;;;;;4.30;1.95;;;12.00;63.10;;;;;;5103319;28;20016;-68
2022/11/25 06:46:27;;;;;;;2.08;1.88;;;12.00;63.10;;;;;;5104449;28;20311;-67
2022/11/25 06:48:52;;;;;;;2.10;1.90;;;11.90;63.10;;;;;;5104355;28;20020;-67
2022/11/25 06:51:19;;;;;;;2.15;1.73;;;11.90;63.20;;;;;;5104340;28;20024;-68
2022/11/25 06:53:45;;;;;;;2.55;2.08;;;11.90;63.20;;;;;;5104314;28;20243;-68
2022/11/25 06:56:17;;;;;;;2.55;2.10;;;12.00;63.20;;;;;;5104270;28;20326;-67
2022/11/25 06:58:44;;;;;;;2.85;2.00;;;12.00;63.10;;;;;;5104222;28;20043;-68
2022/11/25 07:01:23;;;;;;;3.08;2.08;;;12.00;62.90;;;;;;5104100;28;20212;-68
2022/11/25 07:03:51;;;;;;;1.85;1.75;;;12.00;62.80;;;;;;5102402;28;20265;-68
2022/11/25 07:06:18;;;;;;;2.60;2.10;;;12.00;63.10;;;;;;5104119;28;20016;-67
2022/11/25 07:08:45;;;;;;;3.70;2.22;;;12.00;63.60;;;;;;5104071;28;20046;-66
2022/11/25 07:11:19;;;;;;;2.30;2.10;;;12.00;63.10;;;;;;5102800;28;20189;-68
2022/11/25 07:13:45;;;;;;;2.60;2.20;;;12.00;63.10;;;;;;5104017;28;20016;-68
2022/11/25 07:16:12;;;;;;;2.20;1.80;;;12.00;63.10;;;;;;5103965;28;20354;-67
2022/11/25 07:18:39;;;;;;;3.22;2.25;;;12.00;63.10;;;;;;5103916;28;20143;-67
2022/11/25 07:21:17;;;;;;;2.20;2.00;;;12.00;63.10;;;;;;5103749;28;20052;-69
2022/11/25 07:23:44;;;;;;;2.45;2.25;;;12.00;63.10;;;;;;5103861;28;20067;-69
2022/11/25 07:26:18;;;;;;;2.63;2.08;;;12.00;63.10;;;;;;5103769;28;20048;-67
2022/11/25 07:28:44;;;;;;;2.50;1.90;;;12.00;63.10;;;;;;5103821;28;20057;-68
2022/11/25 07:31:13;;;;;;;2.47;2.10;;;12.00;63.10;;;;;;5103726;28;20047;-68
2022/11/25 07:33:39;;;;;;;2.72;2.08;;;12.00;63.10;;;;;;5103692;28;20024;-68
2022/11/25 07:36:06;;;;;;;2.70;1.90;;;12.10;62.80;;;;;;5102543;28;20074;-68
2022/11/25 07:38:33;;;;;;;2.08;1.88;;;12.20;62.30;;;;;;5103656;28;20019;-68
2022/11/25 07:41:06;;;;;;;2.53;2.33;;;12.20;62.30;;;;;;5103590;28;20039;-69
2022/11/25 07:43:32;;;;;;;2.78;2.05;;;12.20;62.30;;;;;;5102518;28;20035;-68
2022/11/25 07:46:22;;;;;;;2.60;2.10;;;12.20;62.30;;;;;;5103607;28;20069;-68
2022/11/25 07:48:49;;;;;;;6.15;2.75;;;12.20;62.40;;;;;;5103634;28;20012;-67
2022/11/25 07:51:18;;;;;;;2.17;1.90;;;12.10;62.50;;;;;;5104864;28;20084;-65
2022/11/25 07:53:44;;;;;;;9.57;3.13;;;12.10;62.60;;;;;;5105250;28;20027;-64
2022/11/25 07:56:11;;;;;;;2.88;2.22;;;12.10;62.60;;;;;;5104865;28;20024;-64
2022/11/25 07:58:36;;;;;;;3.97;2.30;;;12.20;62.60;;;;;;5104768;28;20219;-65
2022/11/25 08:01:05;;;;;;;4.75;2.17;;;12.20;62.60;;;;;;5104767;28;20020;-64
2022/11/25 08:03:32;;;;;;;3.03;2.33;;;12.20;62.50;;;;;;5104686;28;20231;-65
2022/11/25 08:06:03;;;;;;;8.02;2.90;;;12.10;62.60;;;;;;5104396;28;20020;-64
2022/11/25 08:08:29;;;;;;;3.28;2.40;;;12.10;62.70;;;;;;5104458;28;20020;-65
2022/11/25 08:10:55;;;;;;;6.45;2.47;;;12.10;62.80;;;;;;5104518;28;20016;-65
2022/11/25 09:23:03;;;;;;;53.00;11.77;;;11.90;64.60;;;;;;5142599;27;20379;-61
2022/11/25 09:50:53;;;;;;;40.22;12.48;;;12.00;64.90;;;;;;5143488;27;20359;-66
2022/11/25 10:10:20;;;;;;;52.85;16.63;;;12.50;64.10;;;;;;5081132;28;20375;-61
2022/11/25 10:12:47;;;;;;;57.25;15.60;;;12.50;64.90;;;;;;5079786;28;20029;-62
2022/11/25 10:15:26;;;;;;;43.65;15.88;;;12.40;65.10;;;;;;5080867;28;20189;-61
2022/11/25 10:17:54;;;;;;;;;;;12.50;65.20;;;;;;5081327;28;20095;-60
2022/11/25 10:20:35;;;;;;;49.22;15.70;;;12.50;64.90;;;;;;5080789;28;19967;-60
2022/11/25 10:23:20;;;;;;;56.60;17.42;;;12.50;65.10;;;;;;5080772;28;20084;-61
2022/11/25 10:25:51;;;;;;;51.03;17.45;;;12.50;64.90;;;;;;5080667;28;20028;-62
2022/11/25 10:28:29;;;;;;;48.45;16.20;;;12.50;64.90;;;;;;5080845;28;20029;-60
2022/11/25 10:31:10;;;;;;;46.85;16.60;;;12.60;64.70;;;;;;5080619;28;20028;-60
2022/11/25 10:33:45;;;;;;;53.78;17.48;;;12.60;64.60;;;;;;5080488;28;20023;-60
2022/11/25 10:36:20;;;;;;;49.50;15.50;;;12.60;64.70;;;;;;5080491;28;20020;-60
2022/11/25 10:39:16;;;;;;;49.33;15.35;;;12.60;64.50;;;;;;5080441;28;20021;-60
2022/11/25 10:42:11;;;;;;;46.55;15.82;;;12.60;65.10;;;;;;5080376;28;20017;-60
2022/11/25 10:44:40;;;;;;;55.95;15.48;;;12.60;64.40;;;;;;5080325;28;20020;-60
2022/11/25 10:47:20;;;;;;;51.53;15.45;;;12.60;64.40;;;;;;5080280;28;20036;-60
2022/11/25 10:50:07;;;;;;;48.92;15.07;;;12.60;64.30;;;;;;5080176;28;20103;-60
2022/11/25 10:52:54;;;;;;;40.00;14.65;;;12.70;64.40;;;;;;5080168;28;20020;-60
2022/11/25 10:55:38;;;;;;;47.63;15.52;;;12.70;64.30;;;;;;5080127;28;20079;-62
2022/11/25 10:58:32;;;;;;;51.58;16.67;;;12.70;64.20;;;;;;5080014;28;20020;-61
2022/11/25 11:01:13;;;;;;;42.17;15.48;;;12.70;64.20;;;;;;5079895;28;20053;-61
2022/11/25 11:03:39;;;;;;;45.70;16.15;;;12.70;64.20;;;;;;5078771;28;20017;-61
2022/11/25 11:06:05;;;;;;;44.00;15.15;;;12.70;64.20;;;;;;5079823;28;20044;-61
2022/11/25 11:08:39;;;;;;;46.45;15.35;;;12.70;64.20;;;;;;5079526;28;20048;-61
2022/11/25 11:11:20;;;;;;;53.33;15.77;;;12.80;64.20;;;;;;5079713;28;20269;-60
2022/11/25 11:13:47;;;;;;;34.63;13.45;;;12.70;64.10;;;;;;5079627;28;20023;-60
2022/11/25 11:16:35;;;;;;;47.60;15.75;;;12.70;64.30;;;;;;5079565;28;20017;-60
2022/11/25 11:19:01;;;;;;;49.58;16.15;;;12.70;64.40;;;;;;5079592;28;20017;-60
2022/11/25 11:21:33;;;;;;;41.60;13.75;;;12.70;64.40;;;;;;5066984;28;20209;-61
2022/11/25 11:24:00;;;;;;;39.42;14.57;;;12.70;64.30;;;;;;5066236;28;20021;-61
2022/11/25 11:26:34;;;;;;;38.03;14.90;;;12.70;64.40;;;;;;5066195;28;20342;-60
2022/11/25 11:29:20;;;;;;;43.53;13.70;;;12.70;64.50;;;;;;5066058;28;20264;-60
2022/11/25 11:31:57;;;;;;;41.60;14.45;;;12.70;64.30;;;;;;5066139;28;20016;-60
2022/11/25 11:34:31;;;;;;;34.58;14.07;;;12.60;64.40;;;;;;5066085;28;20013;-60
2022/11/25 11:37:16;;;;;;;46.83;16.38;;;12.60;64.70;;;;;;5066031;28;20068;-60
2022/11/25 11:40:01;;;;;;;42.25;14.07;;;12.60;64.70;;;;;;5065981;28;20259;-61
2022/11/25 11:42:45;;;;;;;40.50;13.98;;;12.60;64.80;;;;;;5065955;28;20017;-61
2022/11/25 11:45:40;;;;;;;42.22;13.65;;;12.60;64.80;;;;;;5065848;28;20212;-60
2022/11/25 11:48:12;;;;;;;35.25;13.05;;;12.50;64.80;;;;;;5065768;28;20093;-60
2022/11/25 11:51:07;;;;;;;46.15;14.85;;;12.50;64.90;;;;;;5065688;28;20212;-61
2022/11/25 11:53:42;;;;;;;45.47;14.55;;;12.50;64.90;;;;;;5065727;28;20027;-60
2022/11/25 11:56:35;;;;;;;36.08;14.15;;;12.50;65.00;;;;;;5065694;28;20021;-60
2022/11/25 11:59:32;;;;;;;37.70;12.25;;;12.50;64.90;;;;;;5065629;28;20021;-60
2022/11/25 12:02:17;;;;;;;32.97;13.50;;;12.50;64.90;;;;;;5065552;28;20044;-61
2022/11/25 12:05:10;;;;;;;43.10;13.57;;;12.50;64.90;;;;;;5065529;28;20311;-60
2022/11/25 12:07:50;;;;;;;48.40;15.02;;;12.50;64.90;;;;;;5065477;28;20029;-60
2022/11/25 12:10:39;;;;;;;32.10;12.65;;;12.50;64.90;;;;;;5065448;28;20335;-60
2022/11/25 12:13:26;;;;;;;36.88;13.40;;;12.60;64.80;;;;;;5054211;28;20047;-60
2022/11/25 12:16:06;;;;;;;34.45;12.52;;;12.60;64.70;;;;;;5065318;28;20013;-60
2022/11/25 12:18:56;;;;;;;33.65;13.15;;;12.60;64.70;;;;;;5065279;28;20032;-60
2022/11/25 12:21:24;;;;;;;44.17;13.52;;;12.70;64.50;;;;;;5065218;28;20084;-60
2022/11/25 12:23:58;;;;;;;36.58;13.05;;;12.80;64.40;;;;;;5065132;28;20029;-60
2022/11/25 12:26:39;;;;;;;37.40;12.85;;;12.80;64.30;;;;;;5065124;28;20025;-61
2022/11/25 12:29:11;;;;;;;34.05;13.88;;;12.80;64.30;;;;;;5064977;28;20021;-60
2022/11/25 12:31:43;;;;;;;37.92;14.80;;;12.70;64.40;;;;;;5064139;28;20017;-60
2022/11/25 12:34:18;;;;;;;34.10;12.70;;;12.80;64.50;;;;;;5064935;28;20020;-60
2022/11/25 12:36:45;;;;;;;40.45;12.95;;;12.80;64.40;;;;;;5064921;28;20020;-61
2022/11/25 12:39:18;;;;;;;32.55;12.80;;;12.80;64.30;;;;;;5064859;28;20016;-60
2022/11/25 12:41:53;;;;;;;39.15;12.70;;;12.80;64.50;;;;;;5064814;28;20327;-61
2022/11/25 12:44:30;;;;;;;31.17;11.90;;;12.70;64.70;;;;;;5064796;28;20039;-60
2022/11/25 12:46:56;;;;;;;35.67;12.57;;;12.70;64.80;;;;;;5064698;28;20021;-60
2022/11/25 12:49:24;;;;;;;36.95;13.07;;;12.70;64.80;;;;;;5064557;28;20288;-60
2022/11/25 12:52:27;;;;;;;43.65;13.38;;;12.70;64.80;;;;;;5064562;28;20086;-60
2022/11/25 12:54:53;;;;;;;33.00;12.38;;;12.80;64.50;;;;;;5064553;28;20017;-61
2022/11/25 12:57:19;;;;;;;30.05;11.52;;;13.00;64.10;;;;;;5064493;28;20043;-60
2022/11/25 13:00:06;;;;;;;37.40;13.25;;;13.10;64.30;;;;;;5064414;28;20048;-61
2022/11/25 13:03:23;;;;;;;29.25;11.70;;;13.20;63.30;;;;;;5064365;28;20403;-61
2022/11/25 13:05:48;;;;;;;27.80;11.15;;;13.20;63.10;;;;;;5042449;28;20029;-60
2022/11/25 13:08:42;;;;;;;36.58;14.30;;;13.30;63.10;;;;;;5042184;28;20045;-60
2022/11/25 13:11:29;;;;;;;37.22;13.38;;;13.40;62.70;;;;;;5043737;28;20037;-60
2022/11/25 13:14:04;;;;;;;37.88;13.23;;;13.50;62.60;;;;;;5044252;28;20017;-60
2022/11/25 13:16:30;;;;;;;29.35;11.95;;;13.50;62.60;;;;;;5044210;28;20017;-61
2022/11/25 13:18:56;;;;;;;28.38;10.57;;;13.50;62.40;;;;;;5044128;28;20328;-61
2022/11/25 13:21:23;;;;;;;29.90;13.13;;;13.60;62.40;;;;;;5044087;28;20032;-61
2022/11/25 13:23:57;;;;;;;32.78;12.65;;;13.60;62.30;;;;;;5044084;28;20088;-61
2022/11/25 13:26:33;;;;;;;33.30;12.85;;;13.70;62.20;;;;;;5044020;28;20018;-60
2022/11/25 13:29:06;;;;;;;35.97;11.90;;;13.70;62.20;;;;;;5042716;28;20220;-60
2022/11/25 13:31:53;;;;;;;29.98;12.00;;;13.70;62.10;;;;;;5043925;28;20017;-61
2022/11/25 13:34:19;;;;;;;26.48;10.57;;;13.80;61.90;;;;;;5043916;28;20014;-61
2022/11/25 13:36:50;;;;;;;32.33;12.43;;;13.70;61.80;;;;;;5043850;28;20006;-61
2022/11/25 13:39:37;;;;;;;34.00;13.15;;;13.80;61.90;;;;;;5043814;28;20029;-60
2022/11/25 13:42:19;;;;;;;33.70;12.50;;;13.70;62.00;;;;;;5043543;28;20355;-60
2022/11/25 13:44:53;;;;;;;31.33;12.00;;;13.80;62.00;;;;;;5043484;28;20309;-60
2022/11/25 13:47:35;;;;;;;36.13;11.55;;;13.80;61.90;;;;;;5043705;28;20096;-60
2022/11/25 13:50:23;;;;;;;35.72;11.07;;;13.90;61.80;;;;;;5043650;28;20022;-60
2022/11/25 13:53:16;;;;;;;29.77;11.38;;;13.90;61.80;;;;;;5043399;28;20214;-60
2022/11/25 13:55:43;;;;;;;26.17;11.32;;;13.90;61.80;;;;;;5043660;28;20324;-60
2022/11/25 13:58:09;;;;;;;31.65;12.18;;;13.80;61.90;;;;;;5043611;28;20021;-60
2022/11/25 14:00:34;;;;;;;31.92;12.48;;;13.80;62.00;;;;;;5043556;28;20043;-61
2022/11/25 14:03:18;;;;;;;28.02;12.02;;;13.80;62.00;;;;;;5043515;28;20243;-60
2022/11/25 14:05:44;;;;;;;33.10;12.73;;;13.80;62.00;;;;;;5043455;28;20308;-60
2022/11/25 14:08:14;;;;;;;36.53;14.07;;;13.80;62.10;;;;;;5046485;28;20048;-61
2022/11/25 14:11:17;;;;;;;26.98;10.35;;;13.60;62.60;;;;;;5063397;28;20027;-60
2022/11/25 14:13:55;;;;;;;28.75;10.90;;;13.40;63.20;;;;;;5041428;28;20033;-61
2022/11/25 14:16:39;;;;;;;31.50;12.15;;;13.30;63.60;;;;;;5041528;28;20044;-60
2022/11/25 14:19:13;;;;;;;29.65;9.70;;;13.20;63.80;;;;;;5063607;28;20024;-60
2022/11/25 14:21:50;;;;;;;29.38;11.73;;;13.20;64.00;;;;;;5063277;28;20084;-60
2022/11/25 14:24:31;;;;;;;29.42;11.63;;;13.10;64.20;;;;;;5063208;28;20025;-60
2022/11/25 14:26:58;;;;;;;32.65;11.43;;;13.10;64.30;;;;;;5063230;28;20025;-61
2022/11/25 14:29:27;;;;;;;41.70;12.38;;;13.00;64.70;;;;;;5062295;28;20048;-61
2022/11/25 14:52:57;;;;;;;31.67;10.88;;;13.00;64.20;;;;;;5143485;27;20359;-66
2022/11/25 15:15:46;;;;;;;45.60;17.10;;;12.70;65.30;;;;;;5143326;27;20385;-65
2022/11/25 15:39:25;;;;;;;57.17;19.10;;;12.60;65.90;;;;;;5123410;27;20598;-67
2022/11/25 15:42:11;;;;;;;57.60;19.55;;;12.90;65.70;;;;;;5115908;28;20028;-68
2022/11/25 15:44:55;;;;;;;66.88;20.05;;;12.80;66.00;;;;;;5110503;28;20322;-67
2022/11/25 15:47:29;;;;;;;57.03;19.63;;;12.80;66.30;;;;;;5117722;28;20024;-68
2022/11/25 15:50:04;;;;;;;58.55;19.38;;;12.80;67.00;;;;;;5102280;28;20032;-70
2022/11/25 15:52:39;;;;;;;51.45;18.67;;;12.80;66.30;;;;;;5077555;28;20100;-66
2022/11/25 15:55:40;;;;;;;54.60;19.25;;;12.80;65.90;;;;;;5185454;27;20123;-71
2022/11/25 15:58:23;;;;;;;52.15;17.73;;;12.80;66.30;;;;;;5164824;27;20101;-70
2022/11/25 16:01:14;;;;;;;59.17;17.75;;;12.80;66.20;;;;;;5164919;27;20266;-70
2022/11/25 16:03:40;;;;;;;53.05;19.65;;;12.80;66.10;;;;;;5163540;27;20021;-65
2022/11/25 16:06:26;;;;;;;54.70;20.20;;;12.80;66.10;;;;;;5163430;27;20023;-67
2022/11/25 16:08:53;;;;;;;49.67;17.02;;;12.90;66.10;;;;;;5137263;27;20045;-70